createdAt,value
2022-08-24T00:01:20.998Z,101395.09
2022-08-24T00:04:27.135Z,101398.16
2022-08-24T00:07:34.560Z,101391.50
2022-08-24T00:10:40.176Z,101390.22
2022-08-24T00:13:45.767Z,101387.91
2022-08-24T00:16:53.958Z,101396.91
2022-08-24T00:20:00.350Z,101395.78
2022-08-24T00:23:05.809Z,101388.31
2022-08-24T00:26:11.248Z,101393.03
2022-08-24T00:29:16.801Z,101396.75
2022-08-24T00:32:30.339Z,101393.41
2022-08-24T00:35:35.606Z,101392.94
2022-08-24T00:38:51.904Z,101391.03
2022-08-24T00:41:57.753Z,101384.38
2022-08-24T00:45:04.635Z,101389.91
2022-08-24T00:48:10.403Z,101392.13
2022-08-24T00:51:17.027Z,101398.50
2022-08-24T00:54:23.193Z,101397.84
2022-08-24T00:57:28.678Z,101386.69
2022-08-24T01:00:34.523Z,101384.56
2022-08-24T01:03:47.005Z,101390.25
2022-08-24T01:06:52.884Z,101394.16
2022-08-24T01:09:58.681Z,101388.97
2022-08-24T01:13:05.956Z,101390.53
2022-08-24T01:16:11.425Z,101394.41
2022-08-24T01:19:22.712Z,101388.38
2022-08-24T01:22:28.581Z,101386.72
2022-08-24T01:25:49.264Z,101385.44
2022-08-24T01:28:57.511Z,101389.50
2022-08-24T01:32:03.092Z,101390.69
2022-08-24T01:35:09.190Z,101388.41
2022-08-24T01:38:14.796Z,101383.59
2022-08-24T01:41:20.271Z,101393.66
2022-08-24T01:44:26.092Z,101384.47
2022-08-24T01:47:32.251Z,101390.22
2022-08-24T01:50:43.902Z,101392.25
2022-08-24T01:53:49.779Z,101393.63
2022-08-24T01:57:09.292Z,101386.13
2022-08-24T02:00:15.669Z,101385.84
2022-08-24T02:03:25.470Z,101392.56
2022-08-24T02:06:42.665Z,101378.69
2022-08-24T02:09:48.614Z,101389.63
2022-08-24T02:13:09.839Z,101380.09
2022-08-24T02:16:15.380Z,101389.97
2022-08-24T02:19:21.097Z,101382.13
2022-08-24T02:22:27.977Z,101388.31
2022-08-24T02:25:34.749Z,101390.50
2022-08-24T02:28:40.052Z,101389.00
2022-08-24T02:31:46.016Z,101399.44
2022-08-24T02:34:51.519Z,101399.78
2022-08-24T02:38:12.920Z,101401.16
2022-08-24T02:41:18.596Z,101402.34
2022-08-24T02:44:24.532Z,101409.91
2022-08-24T02:47:38.257Z,101407.59
2022-08-24T02:50:44.867Z,101406.91
2022-08-24T02:53:50.474Z,101419.66
2022-08-24T02:56:57.046Z,101409.50
2022-08-24T03:00:05.959Z,101419.38
2022-08-24T03:03:15.114Z,101416.19
2022-08-24T03:06:20.660Z,101417.03
2022-08-24T03:09:28.813Z,101420.72
2022-08-24T03:12:34.867Z,101422.72
2022-08-24T03:15:40.557Z,101430.09
2022-08-24T03:18:46.448Z,101431.78
2022-08-24T03:21:53.801Z,101417.72
2022-08-24T03:25:06.164Z,101419.41
2022-08-24T03:28:12.035Z,101422.06
2022-08-24T03:31:55.678Z,101419.22
2022-08-24T03:34:44.648Z,101426.25
2022-08-24T03:37:50.665Z,101427.91
2022-08-24T03:40:56.264Z,101431.41
2022-08-24T03:44:01.749Z,101421.38
2022-08-24T03:47:08.581Z,101425.06
2022-08-24T03:50:13.895Z,101429.03
2022-08-24T03:53:19.682Z,101426.84
2022-08-24T03:56:24.969Z,101427.16
2022-08-24T03:59:31.201Z,101430.78
2022-08-24T04:02:36.763Z,101437.09
2022-08-24T04:05:42.461Z,101425.47
2022-08-24T04:08:54.524Z,101431.97
2022-08-24T04:12:00.423Z,101439.28
2022-08-24T04:15:05.809Z,101439.06
2022-08-24T04:18:10.972Z,101432.97
2022-08-24T04:21:16.487Z,101432.06
2022-08-24T04:24:22.084Z,101441.69
2022-08-24T04:27:27.652Z,101445.78
2022-08-24T04:30:33.522Z,101447.56
2022-08-24T04:33:39.585Z,101457.53
2022-08-24T04:36:45.518Z,101467.72
2022-08-24T04:39:51.014Z,101463.97
2022-08-24T04:42:59.231Z,101461.19
2022-08-24T04:46:05.032Z,101455.22
2022-08-24T04:49:11.557Z,101457.88
2022-08-24T04:52:17.193Z,101446.41
2022-08-24T04:55:22.635Z,101457.88
2022-08-24T04:58:28.341Z,101455.59
2022-08-24T05:01:33.950Z,101453.06
2022-08-24T05:04:40.000Z,101460.91
2022-08-24T05:07:46.067Z,101464.38
2022-08-24T05:10:51.973Z,101455.28
2022-08-24T05:13:57.583Z,101462.94
2022-08-24T05:17:03.368Z,101453.84
2022-08-24T05:20:09.293Z,101452.78
2022-08-24T05:23:15.211Z,101460.31
2022-08-24T05:26:21.023Z,101457.88
2022-08-24T05:29:26.556Z,101450.44
2022-08-24T05:32:32.493Z,101451.34
2022-08-24T05:35:38.415Z,101457.16
2022-08-24T05:38:43.745Z,101453.66
2022-08-24T05:41:49.828Z,101463.47
2022-08-24T05:44:55.631Z,101455.50
2022-08-24T05:48:00.909Z,101464.66
2022-08-24T05:51:06.816Z,101456.31
2022-08-24T05:54:13.822Z,101455.34
2022-08-24T05:57:19.446Z,101462.75
2022-08-24T06:00:25.786Z,101463.84
2022-08-24T06:03:31.700Z,101461.16
2022-08-24T06:06:37.217Z,101473.03
2022-08-24T06:09:43.731Z,101473.69
2022-08-24T06:12:49.006Z,101474.72
2022-08-24T06:16:20.770Z,101480.22
2022-08-24T06:19:27.193Z,101477.19
2022-08-24T06:22:32.915Z,101473.84
2022-08-24T06:25:56.379Z,101481.53
2022-08-24T06:29:05.451Z,101483.41
2022-08-24T06:32:11.524Z,101480.03
2022-08-24T06:35:19.677Z,101483.13
2022-08-24T06:38:29.038Z,101485.25
2022-08-24T06:41:34.685Z,101492.34
2022-08-24T06:44:40.665Z,101486.09
2022-08-24T06:47:47.516Z,101481.41
2022-08-24T06:50:53.499Z,101488.63
2022-08-24T06:54:06.096Z,101492.88
2022-08-24T06:57:11.893Z,101495.28
2022-08-24T07:00:17.941Z,101493.09
2022-08-24T07:03:23.821Z,101497.91
2022-08-24T07:06:30.560Z,101493.00
2022-08-24T07:09:36.420Z,101487.59
2022-08-24T07:12:41.990Z,101489.47
2022-08-24T07:15:47.714Z,101491.63
2022-08-24T07:18:54.095Z,101484.06
2022-08-24T07:21:59.525Z,101488.59
2022-08-24T07:25:05.550Z,101504.53
2022-08-24T07:28:11.356Z,101507.88
2022-08-24T07:31:18.861Z,101501.16
2022-08-24T07:34:27.811Z,101506.13
2022-08-24T07:37:41.070Z,101510.59
2022-08-24T07:41:09.466Z,101515.81
2022-08-24T07:44:14.346Z,101510.97
2022-08-24T07:47:38.800Z,101505.91
2022-08-24T07:50:45.375Z,101500.31
2022-08-24T07:53:53.824Z,101501.38
2022-08-24T07:56:59.873Z,101488.38
2022-08-24T08:00:07.000Z,101493.44
2022-08-24T08:03:12.877Z,101497.59
2022-08-24T08:06:19.234Z,101505.72
2022-08-24T08:09:25.018Z,101512.34
2022-08-24T08:12:30.738Z,101518.69
2022-08-24T08:15:36.485Z,101514.53
2022-08-24T08:18:43.443Z,101514.09
2022-08-24T08:22:07.152Z,101514.59
2022-08-24T08:25:13.168Z,101507.53
2022-08-24T08:28:26.008Z,101503.72
2022-08-24T08:31:38.931Z,101501.47
2022-08-24T08:34:45.685Z,101505.97
2022-08-24T08:37:51.048Z,101503.25
2022-08-24T08:40:58.082Z,101505.81
2022-08-24T08:44:03.792Z,101503.13
2022-08-24T08:47:09.590Z,101498.94
2022-08-24T08:50:15.309Z,101497.34
2022-08-24T08:53:21.163Z,101496.78
2022-08-24T08:56:26.780Z,101505.53
2022-08-24T08:59:32.971Z,101498.88
2022-08-24T09:03:05.294Z,101503.91
2022-08-24T09:06:10.792Z,101504.72
2022-08-24T09:09:16.398Z,101508.63
2022-08-24T09:12:21.998Z,101499.13
2022-08-24T09:15:28.440Z,101501.91
2022-08-24T09:18:33.936Z,101504.16
2022-08-24T09:21:39.692Z,101503.13
2022-08-24T09:24:45.502Z,101496.03
2022-08-24T09:27:52.270Z,101497.16
2022-08-24T09:30:58.830Z,101500.19
2022-08-24T09:34:06.156Z,101505.53
2022-08-24T09:37:18.202Z,101509.34
2022-08-24T09:40:24.087Z,101513.47
2022-08-24T09:43:30.159Z,101508.28
2022-08-24T09:46:36.647Z,101496.06
2022-08-24T09:49:43.347Z,101512.78
2022-08-24T09:52:49.331Z,101506.56
2022-08-24T09:55:54.792Z,101504.75
2022-08-24T09:59:00.652Z,101498.28
2022-08-24T10:02:06.556Z,101506.31
2022-08-24T10:05:12.437Z,101510.16
2022-08-24T10:08:34.712Z,101507.38
2022-08-24T10:11:40.519Z,101502.22
2022-08-24T10:14:46.199Z,101513.03
2022-08-24T10:17:53.416Z,101505.63
2022-08-24T10:20:58.757Z,101501.78
2022-08-24T10:24:06.357Z,101498.75
2022-08-24T10:27:11.919Z,101496.38
2022-08-24T10:30:23.569Z,101500.75
2022-08-24T10:33:33.828Z,101491.75
2022-08-24T10:36:39.319Z,101490.66
2022-08-24T10:39:43.919Z,101493.06
2022-08-24T10:43:10.954Z,101500.44
2022-08-24T10:46:16.439Z,101486.84
2022-08-24T10:49:21.913Z,101488.19
2022-08-24T10:52:28.141Z,101485.47
2022-08-24T10:55:33.641Z,101492.31
2022-08-24T10:58:39.450Z,101479.66
2022-08-24T11:01:44.865Z,101475.59
2022-08-24T11:04:50.925Z,101480.59
2022-08-24T11:07:56.984Z,101475.41
2022-08-24T11:11:03.655Z,101483.13
2022-08-24T11:14:09.519Z,101483.66
2022-08-24T11:17:15.287Z,101486.09
2022-08-24T11:20:20.708Z,101490.47
2022-08-24T11:23:31.039Z,101484.47
2022-08-24T11:26:37.109Z,101484.47
2022-08-24T11:29:42.829Z,101488.63
2022-08-24T11:32:49.288Z,101489.75
2022-08-24T11:35:54.657Z,101488.13
2022-08-24T11:39:00.093Z,101489.53
2022-08-24T11:42:05.759Z,101491.16
2022-08-24T11:45:11.354Z,101498.53
2022-08-24T11:48:17.151Z,101484.31
2022-08-24T11:51:22.848Z,101484.88
2022-08-24T11:54:28.028Z,101485.75
2022-08-24T11:57:35.576Z,101486.31
2022-08-24T12:00:42.415Z,101479.19
2022-08-24T12:03:52.323Z,101490.41
2022-08-24T12:06:59.435Z,101493.16
2022-08-24T12:10:04.789Z,101483.84
2022-08-24T12:13:30.665Z,101494.56
2022-08-24T12:16:36.093Z,101488.22
2022-08-24T12:19:43.366Z,101489.06
2022-08-24T12:22:51.816Z,101487.88
2022-08-24T12:26:04.510Z,101482.13
2022-08-24T12:29:10.394Z,101475.84
2022-08-24T12:32:15.927Z,101487.59
2022-08-24T12:35:21.408Z,101490.91
2022-08-24T12:38:27.058Z,101487.13
2022-08-24T12:41:32.435Z,101479.75
2022-08-24T12:44:38.775Z,101481.66
2022-08-24T12:47:45.692Z,101478.94
2022-08-24T12:50:51.653Z,101480.03
2022-08-24T12:53:57.470Z,101472.88
2022-08-24T12:57:03.574Z,101481.94
2022-08-24T13:00:12.998Z,101478.38
2022-08-24T13:03:22.168Z,101474.84
2022-08-24T13:06:27.874Z,101469.88
2022-08-24T13:09:50.395Z,101466.31
2022-08-24T13:12:56.970Z,101471.81
2022-08-24T13:16:05.705Z,101477.56
2022-08-24T13:19:12.427Z,101474.00
2022-08-24T13:22:18.408Z,101473.47
2022-08-24T13:25:27.184Z,101474.84
2022-08-24T13:28:33.179Z,101478.41
2022-08-24T13:31:54.414Z,101470.72
2022-08-24T13:35:00.833Z,101471.53
2022-08-24T13:38:06.626Z,101461.66
2022-08-24T13:41:12.395Z,101477.28
2022-08-24T13:44:17.907Z,101473.44
2022-08-24T13:47:23.755Z,101469.88
2022-08-24T13:50:29.310Z,101471.47
2022-08-24T13:53:42.817Z,101476.97
2022-08-24T13:56:49.385Z,101483.25
2022-08-24T13:59:55.979Z,101475.84
2022-08-24T14:03:01.456Z,101467.00
2022-08-24T14:06:06.973Z,101475.25
2022-08-24T14:09:12.720Z,101468.66
2022-08-24T14:12:18.468Z,101472.50
2022-08-24T14:15:24.275Z,101473.34
2022-08-24T14:18:30.092Z,101466.50
2022-08-24T14:21:35.783Z,101470.34
2022-08-24T14:24:45.902Z,101473.41
2022-08-24T14:27:51.801Z,101464.38
2022-08-24T14:30:57.854Z,101460.56
2022-08-24T14:34:03.561Z,101455.09
2022-08-24T14:37:09.753Z,101447.69
2022-08-24T14:40:17.401Z,101446.59
2022-08-24T14:43:30.105Z,101446.28
2022-08-24T14:46:36.570Z,101437.78
2022-08-24T14:49:43.578Z,101444.09
2022-08-24T14:52:49.311Z,101441.34
2022-08-24T14:55:56.952Z,101437.72
2022-08-24T14:59:06.577Z,101433.56
2022-08-24T15:02:16.369Z,101431.38
2022-08-24T15:05:25.598Z,101430.06
2022-08-24T15:08:32.241Z,101441.56
2022-08-24T15:11:37.932Z,101434.44
2022-08-24T15:14:43.710Z,101433.31
2022-08-24T15:17:49.268Z,101433.56
2022-08-24T15:20:54.689Z,101431.91
2022-08-24T15:24:00.452Z,101431.09
2022-08-24T15:27:05.856Z,101424.50
2022-08-24T15:30:11.693Z,101427.31
2022-08-24T15:33:19.484Z,101418.25
2022-08-24T15:39:45.131Z,101430.94
2022-08-24T15:42:51.431Z,101429.25
2022-08-24T15:45:56.893Z,101427.47
2022-08-24T15:49:02.538Z,101421.16
2022-08-24T15:52:08.414Z,101433.25
2022-08-24T15:55:14.190Z,101421.31
2022-08-24T15:58:20.060Z,101422.84
2022-08-24T16:01:46.648Z,101428.25
2022-08-24T16:04:52.622Z,101431.16
2022-08-24T16:07:58.762Z,101431.28
2022-08-24T16:11:05.182Z,101426.13
2022-08-24T16:14:10.981Z,101424.25
2022-08-24T16:17:19.069Z,101433.97
2022-08-24T16:20:26.466Z,101429.97
2022-08-24T16:23:35.261Z,101422.97
2022-08-24T16:26:41.062Z,101414.00
2022-08-24T16:29:46.977Z,101425.19
2022-08-24T16:32:55.962Z,101418.66
2022-08-24T16:36:01.439Z,101420.16
2022-08-24T16:39:09.207Z,101431.72
2022-08-24T16:42:15.263Z,101439.78
2022-08-24T16:45:20.781Z,101437.38
2022-08-24T16:48:26.566Z,101437.22
2022-08-24T16:51:31.871Z,101446.59
2022-08-24T16:54:43.668Z,101444.22
2022-08-24T16:57:49.069Z,101449.59
2022-08-24T17:00:54.389Z,101454.16
2022-08-24T17:04:12.526Z,101457.41
2022-08-24T17:07:18.256Z,101456.06
2022-08-24T17:10:24.346Z,101458.31
2022-08-24T17:16:56.187Z,101448.69
2022-08-24T17:20:09.635Z,101459.69
2022-08-24T17:23:15.498Z,101456.97
2022-08-24T17:26:24.340Z,101464.09
2022-08-24T17:29:29.759Z,101462.75
2022-08-24T17:32:35.194Z,101468.88
2022-08-24T17:35:43.810Z,101476.63
2022-08-24T17:38:54.463Z,101464.63
2022-08-24T17:42:01.637Z,101469.03
2022-08-24T17:45:07.441Z,101468.41
2022-08-24T17:48:13.419Z,101466.03
2022-08-24T17:51:19.463Z,101478.16
2022-08-24T17:54:26.529Z,101472.47
2022-08-24T17:57:35.530Z,101479.47
2022-08-24T18:00:41.362Z,101487.63
2022-08-24T18:03:47.416Z,101490.47
2022-08-24T18:06:52.865Z,101491.78
2022-08-24T18:10:00.369Z,101493.28
2022-08-24T18:13:09.287Z,101489.50
2022-08-24T18:16:15.715Z,101487.34
2022-08-24T18:19:21.619Z,101502.63
2022-08-24T18:22:30.757Z,101500.19
2022-08-24T18:25:36.185Z,101508.03
2022-08-24T18:29:04.854Z,101507.22
2022-08-24T18:32:11.570Z,101508.22
2022-08-24T18:35:17.894Z,101507.91
2022-08-24T18:38:26.232Z,101512.81
2022-08-24T18:41:32.608Z,101513.31
2022-08-24T18:44:40.696Z,101518.19
2022-08-24T18:47:53.268Z,101521.38
2022-08-24T18:50:59.328Z,101523.81
2022-08-24T18:54:05.745Z,101516.16
2022-08-24T18:57:11.554Z,101526.78
2022-08-24T19:00:23.982Z,101535.44
2022-08-24T19:03:29.482Z,101532.13
2022-08-24T19:06:35.496Z,101545.13
2022-08-24T19:09:41.336Z,101541.25
2022-08-24T19:12:47.145Z,101543.63
2022-08-24T19:15:56.047Z,101546.13
2022-08-24T19:19:01.942Z,101543.19
2022-08-24T19:22:09.679Z,101542.16
2022-08-24T19:25:15.067Z,101552.78
2022-08-24T19:28:20.347Z,101553.72
2022-08-24T19:31:26.613Z,101559.78
2022-08-24T19:34:33.580Z,101563.91
2022-08-24T19:37:39.394Z,101568.63
2022-08-24T19:40:48.049Z,101569.91
2022-08-24T19:44:12.569Z,101571.94
2022-08-24T19:47:43.877Z,101580.91
2022-08-24T19:50:49.459Z,101579.44
2022-08-24T19:53:55.514Z,101583.44
2022-08-24T19:57:01.134Z,101586.50
2022-08-24T20:00:07.966Z,101585.47
2022-08-24T20:03:14.273Z,101587.41
2022-08-24T20:06:20.605Z,101588.97
2022-08-24T20:09:26.228Z,101586.56
2022-08-24T20:12:32.337Z,101584.16
2022-08-24T20:15:38.537Z,101583.38
2022-08-24T20:18:46.871Z,101585.31
2022-08-24T20:21:52.290Z,101590.41
2022-08-24T20:24:57.862Z,101586.34
2022-08-24T20:28:27.565Z,101588.31
2022-08-24T20:31:29.943Z,101595.25
2022-08-24T20:34:43.329Z,101598.47
2022-08-24T20:37:48.739Z,101598.16
2022-08-24T20:41:05.881Z,101613.84
2022-08-24T20:44:19.769Z,101610.78
2022-08-24T20:47:28.131Z,101613.34
2022-08-24T20:50:33.783Z,101621.66
2022-08-24T20:53:39.624Z,101619.84
2022-08-24T20:56:51.246Z,101620.09
2022-08-24T20:59:57.040Z,101626.59
2022-08-24T21:03:03.034Z,101632.03
2022-08-24T21:06:08.812Z,101632.91
2022-08-24T21:09:14.705Z,101638.53
2022-08-24T21:12:20.903Z,101639.63
2022-08-24T21:15:26.642Z,101644.00
2022-08-24T21:18:32.379Z,101651.13
2022-08-24T21:21:40.662Z,101641.97
2022-08-24T21:24:47.711Z,101652.81
2022-08-24T21:28:05.772Z,101652.19
2022-08-24T21:31:11.491Z,101657.84
2022-08-24T21:34:34.809Z,101659.75
2022-08-24T21:37:40.315Z,101654.31
2022-08-24T21:40:45.953Z,101653.69
2022-08-24T21:43:57.865Z,101654.31
2022-08-24T21:47:34.256Z,101661.16
2022-08-24T21:50:36.782Z,101663.69
2022-08-24T21:53:42.801Z,101660.13
2022-08-24T21:56:48.408Z,101658.69
2022-08-24T21:59:54.062Z,101654.13
2022-08-24T22:02:59.857Z,101664.31
2022-08-24T22:06:08.047Z,101666.16
2022-08-24T22:09:13.818Z,101661.81
2022-08-24T22:12:19.745Z,101665.13
2022-08-24T22:15:28.594Z,101667.19
2022-08-24T22:18:34.107Z,101668.00
2022-08-24T22:21:39.498Z,101674.22
2022-08-24T22:24:45.233Z,101683.13
2022-08-24T22:27:51.268Z,101682.06
2022-08-24T22:30:56.884Z,101674.56
2022-08-24T22:34:02.626Z,101681.38
2022-08-24T22:37:28.980Z,101680.13
2022-08-24T22:40:34.411Z,101674.06
2022-08-24T22:43:57.867Z,101685.06
2022-08-24T22:50:39.579Z,101670.41
2022-08-24T22:53:48.977Z,101678.66
2022-08-24T22:56:54.642Z,101669.06
2022-08-24T23:00:00.262Z,101677.28
2022-08-24T23:03:06.123Z,101683.28
2022-08-24T23:06:11.992Z,101690.28
2022-08-24T23:09:20.053Z,101691.09
2022-08-24T23:12:27.588Z,101679.03
2022-08-24T23:15:32.898Z,101683.34
2022-08-24T23:18:57.381Z,101677.53
2022-08-24T23:22:02.718Z,101681.63
2022-08-24T23:25:08.638Z,101679.53
2022-08-24T23:28:17.409Z,101674.72
2022-08-24T23:31:26.549Z,101671.94
2022-08-24T23:34:32.246Z,101672.56
2022-08-24T23:37:37.863Z,101676.84
2022-08-24T23:40:46.829Z,101685.47
2022-08-24T23:43:54.049Z,101677.38
2022-08-24T23:46:59.490Z,101675.63
2022-08-24T23:50:10.679Z,101678.06
2022-08-24T23:53:16.904Z,101673.06
2022-08-24T23:56:31.752Z,101666.78
2022-08-24T23:59:37.572Z,101665.34
